createdAt,value
2022-10-17T00:00:32.995Z,3.53
2022-10-17T00:03:18.813Z,3.75
2022-10-17T00:06:12.975Z,4.20
2022-10-17T00:08:58.579Z,3.85
2022-10-17T00:11:44.089Z,3.78
2022-10-17T00:14:29.636Z,3.70
2022-10-17T00:17:15.773Z,3.67
2022-10-17T00:20:01.382Z,3.38
2022-10-17T00:22:46.847Z,3.70
2022-10-17T00:25:32.118Z,3.88
2022-10-17T00:28:17.797Z,3.65
2022-10-17T00:31:05.552Z,3.20
2022-10-17T00:33:52.172Z,3.47
2022-10-17T00:36:37.704Z,4.15
2022-10-17T00:39:23.307Z,4.63
2022-10-17T00:42:12.676Z,3.42
2022-10-17T00:45:12.455Z,3.60
2022-10-17T00:48:05.255Z,3.30
2022-10-17T00:50:51.389Z,3.15
2022-10-17T00:53:39.155Z,3.10
2022-10-17T00:56:24.850Z,3.35
2022-10-17T00:59:12.556Z,3.53
2022-10-17T01:02:03.265Z,3.42
2022-10-17T01:04:52.199Z,3.60
2022-10-17T01:07:39.187Z,3.47
2022-10-17T01:10:33.093Z,3.55
2022-10-17T01:13:30.238Z,3.20
2022-10-17T01:16:52.377Z,3.05
2022-10-17T01:19:56.018Z,3.20
2022-10-17T01:22:50.119Z,3.33
2022-10-17T01:25:47.888Z,3.40
2022-10-17T01:29:05.801Z,3.17
2022-10-17T01:31:56.802Z,3.05
2022-10-17T01:34:56.520Z,2.60
2022-10-17T01:37:49.236Z,3.30
2022-10-17T01:40:45.563Z,3.40
2022-10-17T01:43:40.612Z,3.00
2022-10-17T01:49:21.922Z,3.00
2022-10-17T01:52:12.846Z,2.97
2022-10-17T01:55:11.781Z,3.42
2022-10-17T01:58:10.229Z,3.05
2022-10-17T02:00:58.094Z,3.10
2022-10-17T02:03:45.249Z,3.05
2022-10-17T02:06:35.273Z,2.85
2022-10-17T02:09:24.430Z,3.03
2022-10-17T02:12:24.937Z,3.63
2022-10-17T02:15:37.503Z,3.28
2022-10-17T02:18:55.050Z,3.35
2022-10-17T02:21:40.506Z,3.42
2022-10-17T02:24:44.287Z,3.08
2022-10-17T02:27:30.146Z,3.10
2022-10-17T02:30:45.132Z,3.15
2022-10-17T02:34:04.130Z,3.03
2022-10-17T02:36:55.050Z,3.08
2022-10-17T02:39:42.291Z,2.90
2022-10-17T02:42:29.479Z,2.63
2022-10-17T02:45:15.877Z,2.90
2022-10-17T02:48:12.625Z,2.53
2022-10-17T02:51:27.121Z,2.67
2022-10-17T02:54:25.070Z,2.63
2022-10-17T02:57:23.191Z,2.85
2022-10-17T03:00:13.063Z,2.80
2022-10-17T03:02:58.654Z,2.80
2022-10-17T03:05:43.955Z,2.97
2022-10-17T03:08:29.528Z,2.50
2022-10-17T03:11:15.233Z,2.90
2022-10-17T03:14:00.576Z,3.00
2022-10-17T03:16:46.261Z,2.45
2022-10-17T03:19:31.682Z,3.05
2022-10-17T03:22:17.374Z,2.50
2022-10-17T03:25:03.155Z,2.92
2022-10-17T03:27:48.633Z,2.92
2022-10-17T03:30:34.556Z,2.90
2022-10-17T03:33:19.904Z,2.63
2022-10-17T03:36:11.001Z,2.70
2022-10-17T03:38:56.560Z,2.47
2022-10-17T03:41:41.866Z,2.83
2022-10-17T03:44:27.431Z,2.78
2022-10-17T03:47:14.217Z,2.88
2022-10-17T03:49:59.937Z,2.58
2022-10-17T03:52:49.264Z,2.50
2022-10-17T03:55:34.623Z,3.03
2022-10-17T03:58:20.110Z,2.70
2022-10-17T04:01:07.148Z,2.45
2022-10-17T04:03:55.935Z,2.70
2022-10-17T04:06:41.280Z,2.90
2022-10-17T04:09:26.960Z,2.80
2022-10-17T04:12:12.408Z,3.03
2022-10-17T04:14:58.319Z,2.75
2022-10-17T04:17:43.692Z,2.80
2022-10-17T04:20:29.341Z,2.78
2022-10-17T04:23:15.085Z,2.60
2022-10-17T04:26:01.400Z,2.83
2022-10-17T04:28:46.924Z,3.20
2022-10-17T04:31:32.616Z,2.70
2022-10-17T04:34:18.605Z,3.17
2022-10-17T04:37:03.973Z,3.38
2022-10-17T04:39:49.722Z,2.75
2022-10-17T04:42:35.225Z,2.72
2022-10-17T04:45:20.549Z,2.95
2022-10-17T04:48:06.209Z,2.90
2022-10-17T04:51:00.254Z,2.70
2022-10-17T04:53:46.390Z,2.88
2022-10-17T04:56:32.019Z,2.72
2022-10-17T04:59:17.666Z,2.70
2022-10-17T05:02:03.151Z,2.88
2022-10-17T05:04:48.382Z,3.03
2022-10-17T05:07:34.058Z,2.58
2022-10-17T05:10:19.428Z,3.20
2022-10-17T05:13:05.796Z,3.33
2022-10-17T05:15:51.506Z,3.10
2022-10-17T05:18:37.057Z,3.10
2022-10-17T05:21:24.299Z,2.88
2022-10-17T05:24:11.561Z,3.00
2022-10-17T05:26:57.210Z,3.03
2022-10-17T05:29:42.887Z,3.13
2022-10-17T05:32:28.511Z,3.15
2022-10-17T05:35:14.493Z,3.33
2022-10-17T05:38:00.638Z,3.63
2022-10-17T05:40:46.015Z,2.60
2022-10-17T05:43:32.354Z,2.50
2022-10-17T05:46:18.046Z,3.08
2022-10-17T05:49:14.654Z,11.10
2022-10-17T05:52:09.120Z,5.88
2022-10-17T05:54:54.834Z,4.90
2022-10-17T05:57:40.712Z,4.30
2022-10-17T06:00:26.564Z,4.82
2022-10-17T06:03:12.493Z,4.20
2022-10-17T06:06:04.068Z,3.90
2022-10-17T06:08:49.676Z,3.65
2022-10-17T06:11:35.494Z,3.15
2022-10-17T06:14:22.057Z,3.10
2022-10-17T06:17:10.955Z,3.03
2022-10-17T06:19:59.140Z,2.70
2022-10-17T06:22:44.359Z,2.90
2022-10-17T06:25:33.765Z,2.65
2022-10-17T06:28:19.128Z,3.15
2022-10-17T06:31:09.458Z,2.95
2022-10-17T06:33:54.951Z,3.10
2022-10-17T06:36:40.318Z,3.20
2022-10-17T06:39:27.138Z,2.88
2022-10-17T06:42:12.514Z,2.70
2022-10-17T06:44:58.071Z,2.60
2022-10-17T06:47:43.843Z,2.58
2022-10-17T06:50:29.509Z,2.88
2022-10-17T06:53:15.060Z,2.85
2022-10-17T06:56:04.714Z,3.10
2022-10-17T06:58:51.455Z,3.15
2022-10-17T07:01:37.396Z,3.13
2022-10-17T07:04:22.950Z,2.90
2022-10-17T07:07:08.725Z,3.17
2022-10-17T07:09:54.108Z,3.58
2022-10-17T07:12:39.760Z,3.50
2022-10-17T07:15:25.383Z,3.20
2022-10-17T07:18:11.520Z,3.03
2022-10-17T07:20:56.998Z,3.60
2022-10-17T07:23:42.492Z,2.90
2022-10-17T07:26:28.272Z,3.17
2022-10-17T07:29:13.910Z,3.33
2022-10-17T07:31:59.481Z,3.30
2022-10-17T07:34:44.981Z,3.33
2022-10-17T07:37:30.738Z,3.30
2022-10-17T07:40:16.786Z,3.22
2022-10-17T07:43:02.027Z,3.20
2022-10-17T07:45:47.696Z,3.10
2022-10-17T07:48:33.379Z,3.13
2022-10-17T07:51:20.156Z,3.40
2022-10-17T07:54:06.453Z,3.20
2022-10-17T07:56:51.986Z,3.17
2022-10-17T07:59:38.531Z,3.13
2022-10-17T08:02:26.450Z,2.85
2022-10-17T08:05:11.581Z,2.80
2022-10-17T08:07:57.728Z,3.00
2022-10-17T08:10:43.369Z,2.80
2022-10-17T08:13:28.785Z,2.67
2022-10-17T08:16:14.240Z,2.80
2022-10-17T08:18:59.782Z,2.60
2022-10-17T08:21:46.949Z,2.70
2022-10-17T08:24:32.382Z,2.50
2022-10-17T08:27:23.970Z,2.28
2022-10-17T08:30:09.644Z,1.92
2022-10-17T08:32:56.394Z,1.85
2022-10-17T08:35:42.099Z,2.33
2022-10-17T08:38:30.986Z,1.98
2022-10-17T08:41:49.533Z,2.00
2022-10-17T08:44:57.259Z,2.47
2022-10-17T08:47:47.362Z,2.50
2022-10-17T08:50:43.952Z,2.47
2022-10-17T08:53:44.990Z,2.50
2022-10-17T08:56:47.896Z,2.58
2022-10-17T08:59:34.503Z,2.67
2022-10-17T09:02:35.095Z,2.30
2022-10-17T09:05:37.033Z,2.20
2022-10-17T09:08:28.598Z,2.00
2022-10-17T09:11:38.707Z,2.30
2022-10-17T09:14:44.417Z,2.20
2022-10-17T09:20:22.496Z,2.35
2022-10-17T09:23:16.088Z,1.80
2022-10-17T09:26:02.213Z,1.88
2022-10-17T09:28:54.298Z,1.73
2022-10-17T09:31:49.283Z,1.80
2022-10-17T09:34:34.737Z,2.00
2022-10-17T09:37:25.758Z,1.95
2022-10-17T09:40:24.764Z,1.80
2022-10-17T09:43:13.626Z,1.80
2022-10-17T09:46:15.793Z,1.70
2022-10-17T09:49:18.567Z,1.67
2022-10-17T09:52:10.657Z,1.80
2022-10-17T09:55:33.068Z,1.90
2022-10-17T09:58:20.519Z,1.75
2022-10-17T10:01:21.035Z,1.70
2022-10-17T10:04:18.183Z,2.30
2022-10-17T10:07:12.357Z,1.60
2022-10-17T10:09:59.221Z,1.52
2022-10-17T10:13:17.161Z,1.60
2022-10-17T10:16:30.040Z,1.45
2022-10-17T10:19:50.357Z,1.38
2022-10-17T10:22:36.037Z,1.60
2022-10-17T10:25:21.536Z,1.98
2022-10-17T10:28:12.017Z,1.70
2022-10-17T10:31:02.650Z,1.83
2022-10-17T10:33:50.510Z,1.60
2022-10-17T10:36:54.227Z,1.27
2022-10-17T10:39:50.211Z,1.73
2022-10-17T10:42:39.768Z,1.40
2022-10-17T10:45:52.825Z,1.50
2022-10-17T10:48:49.512Z,1.77
2022-10-17T10:51:48.955Z,1.42
2022-10-17T10:54:42.401Z,1.65
2022-10-17T10:57:31.750Z,1.73
2022-10-17T11:00:23.319Z,1.80
2022-10-17T11:03:27.598Z,1.55
2022-10-17T11:06:24.031Z,1.60
2022-10-17T11:09:31.418Z,1.40
2022-10-17T11:12:33.055Z,1.95
2022-10-17T11:15:35.530Z,1.70
2022-10-17T11:18:27.013Z,1.85
2022-10-17T11:21:19.271Z,2.38
2022-10-17T11:24:11.319Z,2.25
2022-10-17T11:27:07.840Z,2.10
2022-10-17T11:29:53.736Z,2.00
2022-10-17T11:32:49.828Z,2.10
2022-10-17T11:35:43.288Z,3.30
2022-10-17T11:38:53.972Z,1.80
2022-10-17T11:41:53.343Z,2.17
2022-10-17T11:44:42.533Z,2.67
2022-10-17T11:47:54.328Z,1.67
2022-10-17T11:54:04.597Z,2.08
2022-10-17T11:57:14.693Z,1.60
2022-10-17T12:00:35.832Z,1.58
2022-10-17T12:03:54.538Z,2.80
2022-10-17T12:06:46.265Z,1.77
2022-10-17T12:09:43.331Z,1.30
2022-10-17T12:12:32.310Z,1.55
2022-10-17T12:15:23.403Z,1.60
2022-10-17T12:18:17.150Z,1.70
2022-10-17T12:21:02.615Z,1.73
2022-10-17T12:23:55.328Z,1.63
2022-10-17T12:26:42.489Z,1.40
2022-10-17T12:29:39.383Z,1.75
2022-10-17T12:32:30.166Z,1.50
2022-10-17T12:35:22.586Z,1.40
2022-10-17T12:38:16.983Z,1.20
2022-10-17T12:41:04.194Z,1.00
2022-10-17T12:46:48.563Z,0.95
2022-10-17T12:49:45.645Z,1.38
2022-10-17T12:52:35.212Z,1.33
2022-10-17T12:55:25.763Z,1.00
2022-10-17T12:58:16.471Z,1.00
2022-10-17T13:01:23.188Z,0.75
2022-10-17T13:04:10.743Z,0.90
2022-10-17T13:06:58.969Z,0.90
2022-10-17T13:09:45.456Z,0.90
2022-10-17T13:12:38.907Z,1.05
2022-10-17T13:15:26.863Z,0.88
2022-10-17T13:18:19.201Z,0.80
2022-10-17T13:21:14.300Z,0.93
2022-10-17T13:24:01.169Z,1.05
2022-10-17T13:26:46.914Z,0.95
2022-10-17T13:29:33.364Z,1.33
2022-10-17T13:32:19.265Z,1.20
2022-10-17T13:35:06.384Z,1.00
2022-10-17T13:37:54.102Z,1.00
2022-10-17T13:40:49.991Z,1.17
2022-10-17T13:43:36.257Z,1.02
2022-10-17T13:46:39.533Z,1.70
2022-10-17T13:49:42.438Z,1.10
2022-10-17T13:52:30.151Z,1.05
2022-10-17T13:55:20.125Z,1.10
2022-10-17T13:58:19.283Z,1.10
2022-10-17T14:01:04.878Z,1.00
2022-10-17T14:04:02.030Z,0.90
2022-10-17T14:06:54.426Z,1.00
2022-10-17T14:09:40.087Z,0.95
2022-10-17T14:12:26.070Z,1.13
2022-10-17T14:15:15.164Z,0.95
2022-10-17T14:18:07.802Z,0.82
2022-10-17T14:24:21.061Z,1.10
2022-10-17T14:27:41.767Z,1.08
2022-10-17T14:30:51.656Z,0.90
2022-10-17T14:33:34.596Z,1.15
2022-10-17T14:36:32.223Z,1.00
2022-10-17T14:39:22.335Z,0.80
2022-10-17T14:42:16.125Z,1.00
2022-10-17T14:45:08.045Z,1.10
2022-10-17T14:47:57.457Z,1.00
2022-10-17T14:53:30.382Z,1.30
2022-10-17T14:56:24.996Z,1.00
2022-10-17T14:59:13.763Z,1.23
2022-10-17T15:02:03.651Z,1.10
2022-10-17T15:04:49.373Z,1.10
2022-10-17T15:07:35.101Z,1.23
2022-10-17T15:10:33.561Z,1.20
2022-10-17T15:13:27.955Z,1.02
2022-10-17T15:16:27.297Z,1.10
2022-10-17T15:19:14.274Z,1.30
2022-10-17T15:21:59.804Z,1.20
2022-10-17T15:24:46.281Z,1.02
2022-10-17T15:27:32.733Z,1.10
2022-10-17T15:30:22.650Z,1.20
2022-10-17T15:33:08.319Z,1.10
2022-10-17T15:35:53.808Z,1.40
2022-10-17T15:38:39.169Z,1.10
2022-10-17T15:41:26.803Z,1.20
2022-10-17T15:44:12.494Z,1.20
2022-10-17T15:46:57.842Z,1.40
2022-10-17T15:49:43.058Z,1.35
2022-10-17T15:52:28.805Z,1.30
2022-10-17T15:55:14.248Z,1.70
2022-10-17T15:57:59.589Z,1.10
2022-10-17T16:00:45.820Z,1.35
2022-10-17T16:03:31.849Z,1.50
2022-10-17T16:06:18.989Z,1.25
2022-10-17T16:09:04.766Z,1.30
2022-10-17T16:11:50.063Z,1.38
2022-10-17T16:14:36.039Z,2.05
2022-10-17T16:17:21.415Z,1.40
2022-10-17T16:20:07.914Z,1.30
2022-10-17T16:22:59.894Z,1.27
2022-10-17T16:25:45.807Z,1.23
2022-10-17T16:28:31.348Z,1.38
2022-10-17T16:31:24.419Z,1.30
2022-10-17T16:34:13.191Z,1.10
2022-10-17T16:36:58.596Z,1.27
2022-10-17T16:39:49.070Z,1.33
2022-10-17T16:42:34.654Z,1.40
2022-10-17T16:45:23.331Z,1.13
2022-10-17T16:48:10.100Z,1.50
2022-10-17T16:50:55.417Z,1.77
2022-10-17T16:53:43.952Z,1.20
2022-10-17T16:56:32.892Z,1.35
2022-10-17T16:59:18.141Z,1.38
2022-10-17T17:02:03.768Z,1.40
2022-10-17T17:04:49.619Z,1.20
2022-10-17T17:07:35.307Z,1.30
2022-10-17T17:10:20.686Z,1.50
2022-10-17T17:13:06.406Z,2.45
2022-10-17T17:15:54.828Z,2.65
2022-10-17T17:18:41.303Z,3.97
2022-10-17T17:21:27.915Z,3.03
2022-10-17T17:24:13.855Z,2.22
2022-10-17T17:26:59.254Z,2.15
2022-10-17T17:29:44.734Z,1.70
2022-10-17T17:32:32.063Z,1.77
2022-10-17T17:35:18.062Z,2.90
2022-10-17T17:38:04.842Z,2.05
2022-10-17T17:40:51.200Z,2.33
2022-10-17T17:43:36.875Z,1.85
2022-10-17T17:46:24.115Z,2.33
2022-10-17T17:49:11.386Z,2.08
2022-10-17T17:51:57.077Z,2.60
2022-10-17T17:54:42.711Z,2.40
2022-10-17T17:57:30.263Z,2.42
2022-10-17T18:00:16.294Z,2.40
2022-10-17T18:03:02.030Z,2.70
2022-10-17T18:05:47.823Z,2.47
2022-10-17T18:08:33.748Z,2.45
2022-10-17T18:11:21.896Z,2.67
2022-10-17T18:14:12.123Z,2.50
2022-10-17T18:16:57.441Z,2.40
2022-10-17T18:19:43.282Z,5.13
2022-10-17T18:22:29.130Z,3.05
2022-10-17T18:25:15.020Z,2.67
2022-10-17T18:28:00.674Z,2.53
2022-10-17T18:30:46.364Z,2.50
2022-10-17T18:33:31.605Z,2.40
2022-10-17T18:36:17.354Z,2.53
2022-10-17T18:39:03.875Z,2.50
2022-10-17T18:41:49.236Z,2.40
2022-10-17T18:44:35.003Z,3.55
2022-10-17T18:47:20.634Z,2.40
2022-10-17T18:50:06.537Z,2.58
2022-10-17T18:52:52.232Z,2.53
2022-10-17T18:55:39.688Z,2.20
2022-10-17T18:58:25.386Z,2.38
2022-10-17T19:01:17.785Z,2.72
2022-10-17T19:04:03.545Z,3.20
2022-10-17T19:06:49.114Z,3.00
2022-10-17T19:09:35.062Z,2.42
2022-10-17T19:12:20.510Z,2.90
2022-10-17T19:15:06.125Z,2.90
2022-10-17T19:17:51.522Z,2.80
2022-10-17T19:20:37.052Z,3.70
2022-10-17T19:23:22.683Z,3.03
2022-10-17T19:26:11.586Z,3.40
2022-10-17T19:28:57.322Z,4.28
2022-10-17T19:31:43.565Z,3.78
2022-10-17T19:34:29.478Z,4.05
2022-10-17T19:37:15.198Z,3.30
2022-10-17T19:40:00.893Z,3.97
2022-10-17T19:42:46.474Z,3.53
2022-10-17T19:45:32.056Z,3.78
2022-10-17T19:48:17.697Z,4.40
2022-10-17T19:51:04.614Z,4.50
2022-10-17T19:53:50.373Z,4.35
2022-10-17T19:56:38.065Z,3.83
2022-10-17T20:02:12.406Z,3.60
2022-10-17T20:05:17.035Z,3.22
2022-10-17T20:08:03.208Z,5.10
2022-10-17T20:10:48.886Z,4.20
2022-10-17T20:13:35.717Z,4.10
2022-10-17T20:16:27.215Z,4.38
2022-10-17T20:19:13.651Z,4.28
2022-10-17T20:21:58.862Z,4.68
2022-10-17T20:24:44.462Z,3.60
2022-10-17T20:27:30.071Z,3.80
2022-10-17T20:30:15.991Z,3.58
2022-10-17T20:33:01.275Z,3.28
2022-10-17T20:35:47.017Z,3.40
2022-10-17T20:38:32.469Z,3.22
2022-10-17T20:41:17.856Z,3.17
2022-10-17T20:44:03.671Z,3.40
2022-10-17T20:47:01.039Z,3.08
2022-10-17T20:49:47.201Z,2.97
2022-10-17T20:52:32.922Z,3.42
2022-10-17T20:55:18.203Z,3.72
2022-10-17T20:58:03.999Z,3.33
2022-10-17T21:00:49.268Z,3.63
2022-10-17T21:03:42.355Z,3.97
2022-10-17T21:06:31.337Z,3.55
2022-10-17T21:09:16.700Z,3.80
2022-10-17T21:12:05.243Z,3.22
2022-10-17T21:14:50.783Z,3.33
2022-10-17T21:17:36.403Z,3.10
2022-10-17T21:20:22.202Z,3.33
2022-10-17T21:23:09.638Z,3.38
2022-10-17T21:25:59.644Z,3.47
2022-10-17T21:28:46.256Z,3.60
2022-10-17T21:31:36.864Z,3.38
2022-10-17T21:34:26.152Z,2.72
2022-10-17T21:37:11.671Z,2.90
2022-10-17T21:39:57.045Z,3.10
2022-10-17T21:42:42.714Z,3.35
2022-10-17T21:45:28.350Z,3.08
2022-10-17T21:48:14.097Z,3.35
2022-10-17T21:51:01.836Z,3.10
2022-10-17T21:53:47.419Z,3.40
2022-10-17T21:56:34.720Z,3.30
2022-10-17T21:59:20.210Z,3.40
2022-10-17T22:02:05.549Z,3.45
2022-10-17T22:04:51.357Z,3.17
2022-10-17T22:07:36.747Z,3.20
2022-10-17T22:10:22.235Z,3.00
2022-10-17T22:13:07.775Z,3.17
2022-10-17T22:15:58.712Z,3.55
2022-10-17T22:18:44.156Z,3.00
2022-10-17T22:21:29.792Z,3.47
2022-10-17T22:24:16.930Z,3.45
2022-10-17T22:27:02.589Z,3.50
2022-10-17T22:29:48.276Z,3.40
2022-10-17T22:32:33.884Z,3.25
2022-10-17T22:35:19.398Z,3.85
2022-10-17T22:38:05.015Z,3.22
2022-10-17T22:40:50.592Z,3.65
2022-10-17T22:43:36.236Z,3.38
2022-10-17T22:46:21.414Z,3.83
2022-10-17T22:49:06.987Z,4.55
2022-10-17T22:51:52.780Z,3.97
2022-10-17T22:54:38.079Z,3.50
2022-10-17T22:57:23.837Z,4.10
2022-10-17T23:00:11.583Z,4.30
2022-10-17T23:02:57.489Z,3.97
2022-10-17T23:05:44.422Z,3.85
2022-10-17T23:08:30.371Z,3.80
2022-10-17T23:11:16.150Z,4.78
2022-10-17T23:14:01.429Z,4.20
2022-10-17T23:16:46.880Z,4.00
2022-10-17T23:19:35.821Z,3.80
2022-10-17T23:22:21.304Z,3.60
2022-10-17T23:25:07.251Z,3.90
2022-10-17T23:27:52.880Z,3.90
2022-10-17T23:30:39.736Z,4.38
2022-10-17T23:33:25.351Z,3.97
2022-10-17T23:36:13.805Z,5.53
2022-10-17T23:38:59.420Z,4.30
2022-10-17T23:41:45.007Z,4.30
2022-10-17T23:44:30.719Z,4.15
2022-10-17T23:47:16.456Z,3.53
2022-10-17T23:50:01.861Z,4.13
2022-10-17T23:52:47.300Z,3.80
2022-10-17T23:55:32.795Z,3.72
2022-10-17T23:58:18.987Z,3.70
